sensor_id;sensor_type;location;lat;lon;timestamp;P1;durP1;ratioP1;P2;durP2;ratioP2
83747;SDS011;73737;52.364;17.120;2024-03-25T00:00:27;10.50;;;6.40;;
83747;SDS011;73737;52.364;17.120;2024-03-25T00:03:36;12.70;;;7.40;;
83747;SDS011;73737;52.364;17.120;2024-03-25T00:06:04;12.00;;;7.20;;
83747;SDS011;73737;52.364;17.120;2024-03-25T00:08:33;12.60;;;6.90;;
83747;SDS011;73737;52.364;17.120;2024-03-25T00:11:01;10.10;;;6.50;;
83747;SDS011;73737;52.364;17.120;2024-03-25T00:13:32;10.30;;;6.70;;
83747;SDS011;73737;52.364;17.120;2024-03-25T00:16:03;11.70;;;7.60;;
83747;SDS011;73737;52.364;17.120;2024-03-25T00:18:36;11.70;;;7.00;;
83747;SDS011;73737;52.364;17.120;2024-03-25T00:21:04;10.40;;;6.70;;
83747;SDS011;73737;52.364;17.120;2024-03-25T00:23:33;10.40;;;6.70;;
83747;SDS011;73737;52.364;17.120;2024-03-25T00:26:01;11.20;;;7.40;;
83747;SDS011;73737;52.364;17.120;2024-03-25T00:28:30;12.90;;;8.60;;
83747;SDS011;73737;52.364;17.120;2024-03-25T00:30:59;14.30;;;8.90;;
83747;SDS011;73737;52.364;17.120;2024-03-25T00:33:27;17.90;;;10.20;;
83747;SDS011;73737;52.364;17.120;2024-03-25T00:35:55;16.60;;;11.40;;
83747;SDS011;73737;52.364;17.120;2024-03-25T00:38:24;19.30;;;11.60;;
83747;SDS011;73737;52.364;17.120;2024-03-25T00:40:53;17.50;;;11.60;;
83747;SDS011;73737;52.364;17.120;2024-03-25T00:43:21;23.10;;;13.90;;
83747;SDS011;73737;52.364;17.120;2024-03-25T00:45:49;30.00;;;16.20;;
83747;SDS011;73737;52.364;17.120;2024-03-25T00:48:18;31.90;;;20.60;;
83747;SDS011;73737;52.364;17.120;2024-03-25T00:50:47;39.40;;;23.80;;
83747;SDS011;73737;52.364;17.120;2024-03-25T00:53:15;40.90;;;24.90;;
83747;SDS011;73737;52.364;17.120;2024-03-25T00:55:44;38.80;;;23.50;;
83747;SDS011;73737;52.364;17.120;2024-03-25T00:58:12;40.20;;;22.60;;
83747;SDS011;73737;52.364;17.120;2024-03-25T01:00:41;31.80;;;19.80;;
83747;SDS011;73737;52.364;17.120;2024-03-25T01:03:09;24.10;;;15.50;;
83747;SDS011;73737;52.364;17.120;2024-03-25T01:05:38;18.90;;;11.30;;
83747;SDS011;73737;52.364;17.120;2024-03-25T01:08:06;15.90;;;10.00;;
83747;SDS011;73737;52.364;17.120;2024-03-25T01:10:39;18.50;;;11.20;;
83747;SDS011;73737;52.364;17.120;2024-03-25T01:13:07;15.70;;;10.60;;
83747;SDS011;73737;52.364;17.120;2024-03-25T01:15:36;14.30;;;9.70;;
83747;SDS011;73737;52.364;17.120;2024-03-25T01:18:04;14.30;;;8.80;;
83747;SDS011;73737;52.364;17.120;2024-03-25T01:20:35;12.80;;;7.70;;
83747;SDS011;73737;52.364;17.120;2024-03-25T01:23:04;13.50;;;7.70;;
83747;SDS011;73737;52.364;17.120;2024-03-25T01:25:32;11.60;;;8.00;;
83747;SDS011;73737;52.364;17.120;2024-03-25T01:28:01;11.90;;;8.70;;
83747;SDS011;73737;52.364;17.120;2024-03-25T01:30:35;16.20;;;9.30;;
83747;SDS011;73737;52.364;17.120;2024-03-25T01:33:07;12.50;;;8.50;;
83747;SDS011;73737;52.364;17.120;2024-03-25T01:35:35;14.10;;;8.80;;
83747;SDS011;73737;52.364;17.120;2024-03-25T01:38:04;11.70;;;7.40;;
83747;SDS011;73737;52.364;17.120;2024-03-25T01:40:33;11.70;;;7.60;;
83747;SDS011;73737;52.364;17.120;2024-03-25T01:43:05;12.60;;;8.00;;
83747;SDS011;73737;52.364;17.120;2024-03-25T01:45:34;14.50;;;8.80;;
83747;SDS011;73737;52.364;17.120;2024-03-25T01:48:07;9.80;;;6.70;;
83747;SDS011;73737;52.364;17.120;2024-03-25T01:50:42;9.40;;;6.10;;
83747;SDS011;73737;52.364;17.120;2024-03-25T01:53:11;10.30;;;6.40;;
83747;SDS011;73737;52.364;17.120;2024-03-25T01:55:40;10.80;;;6.20;;
83747;SDS011;73737;52.364;17.120;2024-03-25T01:58:10;10.10;;;6.40;;
83747;SDS011;73737;52.364;17.120;2024-03-25T02:00:39;10.50;;;6.20;;
83747;SDS011;73737;52.364;17.120;2024-03-25T02:03:08;9.80;;;6.20;;
83747;SDS011;73737;52.364;17.120;2024-03-25T02:05:36;8.00;;;5.20;;
83747;SDS011;73737;52.364;17.120;2024-03-25T02:08:04;10.60;;;7.20;;
83747;SDS011;73737;52.364;17.120;2024-03-25T02:10:34;10.20;;;6.20;;
83747;SDS011;73737;52.364;17.120;2024-03-25T02:13:07;10.30;;;5.60;;
83747;SDS011;73737;52.364;17.120;2024-03-25T02:15:43;10.30;;;6.80;;
83747;SDS011;73737;52.364;17.120;2024-03-25T02:18:18;9.70;;;6.60;;
83747;SDS011;73737;52.364;17.120;2024-03-25T02:20:52;9.90;;;6.10;;
83747;SDS011;73737;52.364;17.120;2024-03-25T02:23:21;8.20;;;5.60;;
83747;SDS011;73737;52.364;17.120;2024-03-25T02:25:50;10.20;;;6.30;;
83747;SDS011;73737;52.364;17.120;2024-03-25T02:28:21;10.60;;;6.90;;
83747;SDS011;73737;52.364;17.120;2024-03-25T02:30:49;9.70;;;6.80;;
83747;SDS011;73737;52.364;17.120;2024-03-25T02:33:18;10.80;;;7.00;;
83747;SDS011;73737;52.364;17.120;2024-03-25T02:35:46;10.70;;;6.90;;
83747;SDS011;73737;52.364;17.120;2024-03-25T02:38:15;8.30;;;6.70;;
83747;SDS011;73737;52.364;17.120;2024-03-25T02:40:45;9.30;;;6.40;;
83747;SDS011;73737;52.364;17.120;2024-03-25T02:43:14;11.00;;;6.40;;
83747;SDS011;73737;52.364;17.120;2024-03-25T02:45:42;9.50;;;7.00;;
83747;SDS011;73737;52.364;17.120;2024-03-25T02:48:11;8.90;;;6.90;;
83747;SDS011;73737;52.364;17.120;2024-03-25T02:50:39;6.60;;;5.00;;
83747;SDS011;73737;52.364;17.120;2024-03-25T02:53:08;8.80;;;5.70;;
83747;SDS011;73737;52.364;17.120;2024-03-25T02:55:36;9.90;;;5.80;;
83747;SDS011;73737;52.364;17.120;2024-03-25T02:58:05;9.40;;;6.00;;
83747;SDS011;73737;52.364;17.120;2024-03-25T03:00:33;9.80;;;6.10;;
83747;SDS011;73737;52.364;17.120;2024-03-25T03:03:01;9.60;;;5.70;;
83747;SDS011;73737;52.364;17.120;2024-03-25T03:05:30;8.00;;;4.80;;
83747;SDS011;73737;52.364;17.120;2024-03-25T03:07:58;7.70;;;5.80;;
83747;SDS011;73737;52.364;17.120;2024-03-25T03:10:27;8.90;;;6.00;;
83747;SDS011;73737;52.364;17.120;2024-03-25T03:12:55;9.20;;;6.00;;
83747;SDS011;73737;52.364;17.120;2024-03-25T03:15:23;8.30;;;5.90;;
83747;SDS011;73737;52.364;17.120;2024-03-25T03:17:52;9.30;;;6.10;;
83747;SDS011;73737;52.364;17.120;2024-03-25T03:20:20;9.10;;;5.70;;
83747;SDS011;73737;52.364;17.120;2024-03-25T03:22:49;7.40;;;5.10;;
83747;SDS011;73737;52.364;17.120;2024-03-25T03:25:17;8.30;;;6.00;;
83747;SDS011;73737;52.364;17.120;2024-03-25T03:27:46;8.40;;;5.50;;
83747;SDS011;73737;52.364;17.120;2024-03-25T03:30:14;8.20;;;5.80;;
83747;SDS011;73737;52.364;17.120;2024-03-25T03:32:42;7.80;;;5.00;;
83747;SDS011;73737;52.364;17.120;2024-03-25T03:35:11;8.10;;;5.20;;
83747;SDS011;73737;52.364;17.120;2024-03-25T03:37:39;7.20;;;5.40;;
83747;SDS011;73737;52.364;17.120;2024-03-25T03:40:08;9.10;;;5.70;;
83747;SDS011;73737;52.364;17.120;2024-03-25T03:42:39;9.00;;;5.70;;
83747;SDS011;73737;52.364;17.120;2024-03-25T03:45:07;9.00;;;5.50;;
83747;SDS011;73737;52.364;17.120;2024-03-25T03:47:36;13.20;;;6.90;;
83747;SDS011;73737;52.364;17.120;2024-03-25T03:50:04;10.70;;;7.30;;
83747;SDS011;73737;52.364;17.120;2024-03-25T03:52:33;12.20;;;7.50;;
83747;SDS011;73737;52.364;17.120;2024-03-25T03:55:01;12.00;;;7.30;;
83747;SDS011;73737;52.364;17.120;2024-03-25T03:57:31;10.50;;;7.30;;
83747;SDS011;73737;52.364;17.120;2024-03-25T04:00:02;10.10;;;6.90;;
83747;SDS011;73737;52.364;17.120;2024-03-25T04:02:40;8.90;;;6.30;;
83747;SDS011;73737;52.364;17.120;2024-03-25T04:05:08;9.30;;;7.30;;
83747;SDS011;73737;52.364;17.120;2024-03-25T04:07:37;10.50;;;6.70;;
83747;SDS011;73737;52.364;17.120;2024-03-25T04:10:06;8.10;;;5.60;;
83747;SDS011;73737;52.364;17.120;2024-03-25T04:12:35;8.90;;;5.60;;
83747;SDS011;73737;52.364;17.120;2024-03-25T04:15:04;8.50;;;5.30;;
83747;SDS011;73737;52.364;17.120;2024-03-25T04:17:40;8.00;;;5.60;;
83747;SDS011;73737;52.364;17.120;2024-03-25T04:20:11;8.20;;;5.30;;
83747;SDS011;73737;52.364;17.120;2024-03-25T04:22:44;7.80;;;5.30;;
83747;SDS011;73737;52.364;17.120;2024-03-25T04:25:12;9.20;;;5.90;;
83747;SDS011;73737;52.364;17.120;2024-03-25T04:27:44;9.80;;;6.10;;
83747;SDS011;73737;52.364;17.120;2024-03-25T04:30:13;7.50;;;5.50;;
83747;SDS011;73737;52.364;17.120;2024-03-25T04:32:42;9.00;;;5.80;;
83747;SDS011;73737;52.364;17.120;2024-03-25T04:35:10;17.20;;;7.30;;
83747;SDS011;73737;52.364;17.120;2024-03-25T04:37:39;18.20;;;8.20;;
83747;SDS011;73737;52.364;17.120;2024-03-25T04:40:09;16.10;;;6.90;;
83747;SDS011;73737;52.364;17.120;2024-03-25T04:42:40;8.10;;;6.10;;
83747;SDS011;73737;52.364;17.120;2024-03-25T04:45:09;8.00;;;5.60;;
83747;SDS011;73737;52.364;17.120;2024-03-25T04:47:37;9.20;;;5.60;;
83747;SDS011;73737;52.364;17.120;2024-03-25T04:50:06;8.20;;;6.10;;
83747;SDS011;73737;52.364;17.120;2024-03-25T04:52:35;9.70;;;5.90;;
83747;SDS011;73737;52.364;17.120;2024-03-25T04:55:04;8.90;;;6.00;;
83747;SDS011;73737;52.364;17.120;2024-03-25T04:57:32;9.20;;;6.30;;
83747;SDS011;73737;52.364;17.120;2024-03-25T05:00:02;9.20;;;5.70;;
83747;SDS011;73737;52.364;17.120;2024-03-25T05:02:31;11.00;;;7.00;;
83747;SDS011;73737;52.364;17.120;2024-03-25T05:04:59;11.40;;;6.70;;
83747;SDS011;73737;52.364;17.120;2024-03-25T05:07:27;11.90;;;6.80;;
83747;SDS011;73737;52.364;17.120;2024-03-25T05:09:59;9.60;;;6.40;;
83747;SDS011;73737;52.364;17.120;2024-03-25T05:12:28;11.50;;;7.40;;
83747;SDS011;73737;52.364;17.120;2024-03-25T05:14:58;11.20;;;6.70;;
83747;SDS011;73737;52.364;17.120;2024-03-25T05:17:29;9.60;;;5.90;;
83747;SDS011;73737;52.364;17.120;2024-03-25T05:19:58;10.90;;;7.60;;
83747;SDS011;73737;52.364;17.120;2024-03-25T05:22:26;11.60;;;7.40;;
83747;SDS011;73737;52.364;17.120;2024-03-25T05:24:55;10.90;;;7.40;;
83747;SDS011;73737;52.364;17.120;2024-03-25T05:27:23;11.00;;;6.90;;
83747;SDS011;73737;52.364;17.120;2024-03-25T05:29:51;10.90;;;7.70;;
83747;SDS011;73737;52.364;17.120;2024-03-25T05:32:20;17.50;;;9.90;;
83747;SDS011;73737;52.364;17.120;2024-03-25T05:34:49;13.30;;;8.60;;
83747;SDS011;73737;52.364;17.120;2024-03-25T05:37:19;11.40;;;7.70;;
83747;SDS011;73737;52.364;17.120;2024-03-25T05:39:47;10.70;;;7.20;;
83747;SDS011;73737;52.364;17.120;2024-03-25T05:42:15;13.30;;;8.50;;
83747;SDS011;73737;52.364;17.120;2024-03-25T05:44:45;11.50;;;7.20;;
83747;SDS011;73737;52.364;17.120;2024-03-25T05:47:14;12.40;;;7.80;;
83747;SDS011;73737;52.364;17.120;2024-03-25T05:49:42;13.60;;;8.60;;
83747;SDS011;73737;52.364;17.120;2024-03-25T05:52:11;13.10;;;8.60;;
83747;SDS011;73737;52.364;17.120;2024-03-25T05:54:39;12.30;;;8.30;;
83747;SDS011;73737;52.364;17.120;2024-03-25T05:57:07;13.90;;;9.40;;
83747;SDS011;73737;52.364;17.120;2024-03-25T05:59:35;10.90;;;7.20;;
83747;SDS011;73737;52.364;17.120;2024-03-25T06:02:04;10.20;;;7.00;;
83747;SDS011;73737;52.364;17.120;2024-03-25T06:04:32;12.00;;;7.70;;
83747;SDS011;73737;52.364;17.120;2024-03-25T06:07:00;10.70;;;8.20;;
83747;SDS011;73737;52.364;17.120;2024-03-25T06:09:29;9.60;;;6.20;;
83747;SDS011;73737;52.364;17.120;2024-03-25T06:11:58;9.00;;;6.00;;
83747;SDS011;73737;52.364;17.120;2024-03-25T06:14:26;7.50;;;5.50;;
83747;SDS011;73737;52.364;17.120;2024-03-25T06:16:55;6.40;;;4.40;;
83747;SDS011;73737;52.364;17.120;2024-03-25T06:19:23;4.90;;;3.90;;
83747;SDS011;73737;52.364;17.120;2024-03-25T06:21:53;5.20;;;3.90;;
83747;SDS011;73737;52.364;17.120;2024-03-25T06:24:22;6.00;;;3.60;;
83747;SDS011;73737;52.364;17.120;2024-03-25T06:26:50;5.20;;;4.10;;
83747;SDS011;73737;52.364;17.120;2024-03-25T06:29:19;5.20;;;3.40;;
83747;SDS011;73737;52.364;17.120;2024-03-25T06:31:48;5.60;;;4.30;;
83747;SDS011;73737;52.364;17.120;2024-03-25T06:34:35;6.10;;;3.90;;
83747;SDS011;73737;52.364;17.120;2024-03-25T06:37:03;5.80;;;3.70;;
83747;SDS011;73737;52.364;17.120;2024-03-25T06:39:32;5.30;;;3.70;;
83747;SDS011;73737;52.364;17.120;2024-03-25T06:42:00;6.40;;;4.00;;
83747;SDS011;73737;52.364;17.120;2024-03-25T06:44:29;5.40;;;4.00;;
83747;SDS011;73737;52.364;17.120;2024-03-25T06:46:59;6.80;;;4.40;;
83747;SDS011;73737;52.364;17.120;2024-03-25T06:49:27;8.50;;;4.80;;
83747;SDS011;73737;52.364;17.120;2024-03-25T06:51:56;6.50;;;4.80;;
83747;SDS011;73737;52.364;17.120;2024-03-25T06:54:24;6.00;;;4.70;;
83747;SDS011;73737;52.364;17.120;2024-03-25T06:56:52;7.60;;;5.30;;
83747;SDS011;73737;52.364;17.120;2024-03-25T06:59:22;7.50;;;5.80;;
83747;SDS011;73737;52.364;17.120;2024-03-25T07:01:50;8.40;;;5.30;;
83747;SDS011;73737;52.364;17.120;2024-03-25T07:04:18;10.10;;;6.30;;
83747;SDS011;73737;52.364;17.120;2024-03-25T07:06:46;10.70;;;7.00;;
83747;SDS011;73737;52.364;17.120;2024-03-25T07:09:15;12.50;;;7.10;;
83747;SDS011;73737;52.364;17.120;2024-03-25T07:11:43;10.90;;;7.00;;
83747;SDS011;73737;52.364;17.120;2024-03-25T07:14:14;11.80;;;7.50;;
83747;SDS011;73737;52.364;17.120;2024-03-25T07:16:42;10.80;;;7.00;;
83747;SDS011;73737;52.364;17.120;2024-03-25T07:19:11;8.80;;;5.60;;
83747;SDS011;73737;52.364;17.120;2024-03-25T07:21:39;7.80;;;5.30;;
83747;SDS011;73737;52.364;17.120;2024-03-25T07:24:07;8.70;;;5.70;;
83747;SDS011;73737;52.364;17.120;2024-03-25T07:26:36;9.20;;;5.70;;
83747;SDS011;73737;52.364;17.120;2024-03-25T07:29:04;7.30;;;5.40;;
83747;SDS011;73737;52.364;17.120;2024-03-25T07:31:32;7.60;;;5.40;;
83747;SDS011;73737;52.364;17.120;2024-03-25T07:34:01;13.00;;;6.60;;
83747;SDS011;73737;52.364;17.120;2024-03-25T07:36:29;12.50;;;8.20;;
83747;SDS011;73737;52.364;17.120;2024-03-25T07:39:01;13.50;;;8.10;;
83747;SDS011;73737;52.364;17.120;2024-03-25T07:41:30;12.60;;;8.40;;
83747;SDS011;73737;52.364;17.120;2024-03-25T07:43:58;14.40;;;8.40;;
83747;SDS011;73737;52.364;17.120;2024-03-25T07:46:27;17.60;;;9.80;;
83747;SDS011;73737;52.364;17.120;2024-03-25T07:48:55;14.80;;;8.60;;
83747;SDS011;73737;52.364;17.120;2024-03-25T07:51:23;13.30;;;8.60;;
83747;SDS011;73737;52.364;17.120;2024-03-25T07:53:51;17.10;;;9.80;;
83747;SDS011;73737;52.364;17.120;2024-03-25T07:56:20;20.60;;;12.20;;
83747;SDS011;73737;52.364;17.120;2024-03-25T07:58:48;18.70;;;10.90;;
83747;SDS011;73737;52.364;17.120;2024-03-25T08:01:17;19.00;;;11.10;;
83747;SDS011;73737;52.364;17.120;2024-03-25T08:03:45;20.80;;;12.30;;
83747;SDS011;73737;52.364;17.120;2024-03-25T08:06:13;19.70;;;10.40;;
83747;SDS011;73737;52.364;17.120;2024-03-25T08:08:42;19.60;;;11.90;;
83747;SDS011;73737;52.364;17.120;2024-03-25T08:11:10;20.80;;;11.40;;
83747;SDS011;73737;52.364;17.120;2024-03-25T08:13:39;23.00;;;12.80;;
83747;SDS011;73737;52.364;17.120;2024-03-25T08:16:07;20.90;;;12.50;;
83747;SDS011;73737;52.364;17.120;2024-03-25T08:18:35;21.80;;;12.70;;
83747;SDS011;73737;52.364;17.120;2024-03-25T08:21:04;21.50;;;12.20;;
83747;SDS011;73737;52.364;17.120;2024-03-25T08:23:32;19.20;;;12.60;;
83747;SDS011;73737;52.364;17.120;2024-03-25T08:26:00;18.30;;;11.60;;
83747;SDS011;73737;52.364;17.120;2024-03-25T08:28:30;18.70;;;11.40;;
83747;SDS011;73737;52.364;17.120;2024-03-25T08:30:58;20.50;;;11.90;;
83747;SDS011;73737;52.364;17.120;2024-03-25T08:33:27;18.70;;;10.90;;
83747;SDS011;73737;52.364;17.120;2024-03-25T08:35:56;21.30;;;10.90;;
83747;SDS011;73737;52.364;17.120;2024-03-25T08:38:24;17.70;;;10.10;;
83747;SDS011;73737;52.364;17.120;2024-03-25T08:40:53;18.70;;;11.90;;
83747;SDS011;73737;52.364;17.120;2024-03-25T08:43:21;17.80;;;11.20;;
83747;SDS011;73737;52.364;17.120;2024-03-25T08:45:49;20.00;;;10.70;;
83747;SDS011;73737;52.364;17.120;2024-03-25T08:48:18;18.20;;;11.20;;
83747;SDS011;73737;52.364;17.120;2024-03-25T08:50:46;15.90;;;9.70;;
83747;SDS011;73737;52.364;17.120;2024-03-25T08:53:14;16.90;;;10.60;;
83747;SDS011;73737;52.364;17.120;2024-03-25T08:55:44;15.60;;;9.40;;
83747;SDS011;73737;52.364;17.120;2024-03-25T08:58:16;15.70;;;10.70;;
83747;SDS011;73737;52.364;17.120;2024-03-25T09:00:44;16.00;;;10.10;;
83747;SDS011;73737;52.364;17.120;2024-03-25T09:03:12;13.10;;;9.30;;
83747;SDS011;73737;52.364;17.120;2024-03-25T09:05:41;13.80;;;8.70;;
83747;SDS011;73737;52.364;17.120;2024-03-25T09:08:11;14.20;;;8.80;;
83747;SDS011;73737;52.364;17.120;2024-03-25T09:10:43;11.50;;;6.50;;
83747;SDS011;73737;52.364;17.120;2024-03-25T09:13:30;10.30;;;6.60;;
83747;SDS011;73737;52.364;17.120;2024-03-25T09:15:59;10.70;;;7.10;;
83747;SDS011;73737;52.364;17.120;2024-03-25T09:18:27;8.80;;;5.10;;
83747;SDS011;73737;52.364;17.120;2024-03-25T09:20:56;7.70;;;5.80;;
83747;SDS011;73737;52.364;17.120;2024-03-25T09:23:24;8.50;;;5.90;;
83747;SDS011;73737;52.364;17.120;2024-03-25T09:25:53;9.50;;;5.60;;
83747;SDS011;73737;52.364;17.120;2024-03-25T09:28:22;8.40;;;6.30;;
83747;SDS011;73737;52.364;17.120;2024-03-25T09:30:50;8.60;;;4.80;;
83747;SDS011;73737;52.364;17.120;2024-03-25T09:33:18;6.30;;;4.50;;
83747;SDS011;73737;52.364;17.120;2024-03-25T09:35:47;7.50;;;4.70;;
83747;SDS011;73737;52.364;17.120;2024-03-25T09:38:15;3.10;;;2.40;;
83747;SDS011;73737;52.364;17.120;2024-03-25T09:40:44;4.20;;;3.00;;
83747;SDS011;73737;52.364;17.120;2024-03-25T09:46:07;4.50;;;3.60;;
83747;SDS011;73737;52.364;17.120;2024-03-25T09:48:37;3.50;;;2.80;;
83747;SDS011;73737;52.364;17.120;2024-03-25T09:51:05;6.50;;;3.30;;
83747;SDS011;73737;52.364;17.120;2024-03-25T09:53:34;4.20;;;2.70;;
83747;SDS011;73737;52.364;17.120;2024-03-25T09:56:03;5.20;;;4.10;;
83747;SDS011;73737;52.364;17.120;2024-03-25T09:58:32;7.30;;;4.30;;
83747;SDS011;73737;52.364;17.120;2024-03-25T10:01:02;5.30;;;3.80;;
83747;SDS011;73737;52.364;17.120;2024-03-25T10:03:31;5.30;;;3.90;;
83747;SDS011;73737;52.364;17.120;2024-03-25T10:05:59;4.00;;;2.80;;
83747;SDS011;73737;52.364;17.120;2024-03-25T10:08:28;5.20;;;3.40;;
83747;SDS011;73737;52.364;17.120;2024-03-25T10:11:00;4.00;;;2.80;;
83747;SDS011;73737;52.364;17.120;2024-03-25T10:13:30;4.40;;;3.40;;
83747;SDS011;73737;52.364;17.120;2024-03-25T10:15:59;5.80;;;3.70;;
83747;SDS011;73737;52.364;17.120;2024-03-25T10:18:27;5.20;;;3.30;;
83747;SDS011;73737;52.364;17.120;2024-03-25T10:20:56;5.20;;;3.40;;
83747;SDS011;73737;52.364;17.120;2024-03-25T10:23:24;4.70;;;3.80;;
83747;SDS011;73737;52.364;17.120;2024-03-25T10:25:56;5.00;;;3.50;;
83747;SDS011;73737;52.364;17.120;2024-03-25T10:28:24;3.80;;;3.00;;
83747;SDS011;73737;52.364;17.120;2024-03-25T10:31:04;4.60;;;3.60;;
83747;SDS011;73737;52.364;17.120;2024-03-25T10:33:33;7.00;;;3.90;;
83747;SDS011;73737;52.364;17.120;2024-03-25T10:36:02;5.60;;;4.00;;
83747;SDS011;73737;52.364;17.120;2024-03-25T10:38:31;5.10;;;3.70;;
83747;SDS011;73737;52.364;17.120;2024-03-25T10:41:01;5.20;;;3.70;;
83747;SDS011;73737;52.364;17.120;2024-03-25T10:43:30;5.00;;;4.00;;
83747;SDS011;73737;52.364;17.120;2024-03-25T10:45:59;5.70;;;4.70;;
83747;SDS011;73737;52.364;17.120;2024-03-25T10:48:28;6.70;;;4.80;;
83747;SDS011;73737;52.364;17.120;2024-03-25T10:50:58;6.00;;;5.20;;
83747;SDS011;73737;52.364;17.120;2024-03-25T10:53:30;5.60;;;4.90;;
83747;SDS011;73737;52.364;17.120;2024-03-25T10:55:58;5.50;;;4.80;;
83747;SDS011;73737;52.364;17.120;2024-03-25T10:58:29;4.90;;;4.40;;
83747;SDS011;73737;52.364;17.120;2024-03-25T11:00:57;4.80;;;4.30;;
83747;SDS011;73737;52.364;17.120;2024-03-25T11:03:26;5.40;;;4.50;;
83747;SDS011;73737;52.364;17.120;2024-03-25T11:05:55;4.60;;;4.20;;
83747;SDS011;73737;52.364;17.120;2024-03-25T11:08:29;4.80;;;4.30;;
83747;SDS011;73737;52.364;17.120;2024-03-25T11:10:59;5.50;;;4.80;;
83747;SDS011;73737;52.364;17.120;2024-03-25T11:13:28;5.50;;;5.00;;
83747;SDS011;73737;52.364;17.120;2024-03-25T11:15:58;5.60;;;5.10;;
83747;SDS011;73737;52.364;17.120;2024-03-25T11:18:28;5.30;;;4.80;;
83747;SDS011;73737;52.364;17.120;2024-03-25T11:23:38;5.70;;;5.10;;
83747;SDS011;73737;52.364;17.120;2024-03-25T11:28:46;4.90;;;4.40;;
83747;SDS011;73737;52.364;17.120;2024-03-25T11:31:15;4.10;;;3.70;;
83747;SDS011;73737;52.364;17.120;2024-03-25T11:33:44;7.90;;;4.10;;
83747;SDS011;73737;52.364;17.120;2024-03-25T11:36:13;4.20;;;3.80;;
83747;SDS011;73737;52.364;17.120;2024-03-25T11:38:41;5.20;;;4.40;;
83747;SDS011;73737;52.364;17.120;2024-03-25T11:41:12;5.00;;;4.30;;
83747;SDS011;73737;52.364;17.120;2024-03-25T11:43:41;4.00;;;3.60;;
83747;SDS011;73737;52.364;17.120;2024-03-25T11:46:10;5.40;;;4.30;;
83747;SDS011;73737;52.364;17.120;2024-03-25T11:48:38;4.60;;;3.90;;
83747;SDS011;73737;52.364;17.120;2024-03-25T11:51:10;4.20;;;3.70;;
83747;SDS011;73737;52.364;17.120;2024-03-25T11:53:40;5.60;;;3.70;;
83747;SDS011;73737;52.364;17.120;2024-03-25T11:56:08;4.90;;;4.00;;
83747;SDS011;73737;52.364;17.120;2024-03-25T11:58:37;6.20;;;5.20;;
83747;SDS011;73737;52.364;17.120;2024-03-25T12:01:06;5.80;;;4.30;;
83747;SDS011;73737;52.364;17.120;2024-03-25T12:03:36;4.00;;;3.60;;
83747;SDS011;73737;52.364;17.120;2024-03-25T12:06:05;5.20;;;4.00;;
83747;SDS011;73737;52.364;17.120;2024-03-25T12:08:34;4.10;;;3.30;;
83747;SDS011;73737;52.364;17.120;2024-03-25T12:11:12;5.00;;;3.30;;
83747;SDS011;73737;52.364;17.120;2024-03-25T12:13:47;4.70;;;3.40;;
83747;SDS011;73737;52.364;17.120;2024-03-25T12:16:16;5.60;;;3.70;;
83747;SDS011;73737;52.364;17.120;2024-03-25T12:18:44;4.70;;;3.40;;
83747;SDS011;73737;52.364;17.120;2024-03-25T12:21:13;6.80;;;4.10;;
83747;SDS011;73737;52.364;17.120;2024-03-25T12:23:42;6.50;;;4.40;;
83747;SDS011;73737;52.364;17.120;2024-03-25T12:26:10;5.80;;;4.80;;
83747;SDS011;73737;52.364;17.120;2024-03-25T12:28:39;6.10;;;4.70;;
83747;SDS011;73737;52.364;17.120;2024-03-25T12:31:08;6.50;;;4.20;;
83747;SDS011;73737;52.364;17.120;2024-03-25T12:33:41;6.20;;;4.80;;
83747;SDS011;73737;52.364;17.120;2024-03-25T12:36:13;7.10;;;4.70;;
83747;SDS011;73737;52.364;17.120;2024-03-25T12:38:42;7.20;;;4.70;;
83747;SDS011;73737;52.364;17.120;2024-03-25T12:41:11;6.50;;;4.60;;
83747;SDS011;73737;52.364;17.120;2024-03-25T12:43:43;7.80;;;5.00;;
83747;SDS011;73737;52.364;17.120;2024-03-25T12:46:12;7.20;;;4.80;;
83747;SDS011;73737;52.364;17.120;2024-03-25T12:48:41;6.90;;;5.40;;
83747;SDS011;73737;52.364;17.120;2024-03-25T12:51:15;6.30;;;5.00;;
83747;SDS011;73737;52.364;17.120;2024-03-25T12:53:44;5.00;;;3.70;;
83747;SDS011;73737;52.364;17.120;2024-03-25T12:56:12;4.90;;;3.40;;
83747;SDS011;73737;52.364;17.120;2024-03-25T12:58:41;5.40;;;2.80;;
83747;SDS011;73737;52.364;17.120;2024-03-25T13:01:09;2.50;;;1.90;;
83747;SDS011;73737;52.364;17.120;2024-03-25T13:03:37;3.40;;;1.60;;
83747;SDS011;73737;52.364;17.120;2024-03-25T13:06:05;3.60;;;2.20;;
83747;SDS011;73737;52.364;17.120;2024-03-25T13:08:34;3.20;;;2.30;;
83747;SDS011;73737;52.364;17.120;2024-03-25T13:11:02;3.10;;;2.30;;
83747;SDS011;73737;52.364;17.120;2024-03-25T13:13:31;2.90;;;2.00;;
83747;SDS011;73737;52.364;17.120;2024-03-25T13:16:00;4.20;;;2.70;;
83747;SDS011;73737;52.364;17.120;2024-03-25T13:18:28;4.30;;;3.10;;
83747;SDS011;73737;52.364;17.120;2024-03-25T13:20:57;4.00;;;3.00;;
83747;SDS011;73737;52.364;17.120;2024-03-25T13:23:26;3.90;;;2.20;;
83747;SDS011;73737;52.364;17.120;2024-03-25T13:25:55;5.50;;;3.30;;
83747;SDS011;73737;52.364;17.120;2024-03-25T13:28:23;5.30;;;3.10;;
83747;SDS011;73737;52.364;17.120;2024-03-25T13:30:51;4.60;;;3.10;;
83747;SDS011;73737;52.364;17.120;2024-03-25T13:33:20;4.90;;;3.00;;
83747;SDS011;73737;52.364;17.120;2024-03-25T13:35:48;3.80;;;2.70;;
83747;SDS011;73737;52.364;17.120;2024-03-25T13:38:16;5.90;;;2.70;;
83747;SDS011;73737;52.364;17.120;2024-03-25T13:40:44;3.60;;;2.60;;
83747;SDS011;73737;52.364;17.120;2024-03-25T13:43:12;3.50;;;2.30;;
83747;SDS011;73737;52.364;17.120;2024-03-25T13:45:45;4.50;;;2.70;;
83747;SDS011;73737;52.364;17.120;2024-03-25T13:48:17;4.50;;;3.10;;
83747;SDS011;73737;52.364;17.120;2024-03-25T13:50:46;4.80;;;3.10;;
83747;SDS011;73737;52.364;17.120;2024-03-25T13:53:15;4.10;;;3.00;;
83747;SDS011;73737;52.364;17.120;2024-03-25T13:55:44;4.90;;;3.30;;
83747;SDS011;73737;52.364;17.120;2024-03-25T13:58:12;6.60;;;3.90;;
83747;SDS011;73737;52.364;17.120;2024-03-25T14:00:41;4.80;;;3.20;;
83747;SDS011;73737;52.364;17.120;2024-03-25T14:03:09;3.30;;;2.50;;
83747;SDS011;73737;52.364;17.120;2024-03-25T14:05:38;4.50;;;2.30;;
83747;SDS011;73737;52.364;17.120;2024-03-25T14:08:06;2.50;;;1.90;;
83747;SDS011;73737;52.364;17.120;2024-03-25T14:10:34;2.90;;;2.20;;
83747;SDS011;73737;52.364;17.120;2024-03-25T14:13:03;2.80;;;2.40;;
83747;SDS011;73737;52.364;17.120;2024-03-25T14:15:33;4.60;;;2.40;;
83747;SDS011;73737;52.364;17.120;2024-03-25T14:18:01;3.60;;;2.40;;
83747;SDS011;73737;52.364;17.120;2024-03-25T14:20:30;3.70;;;2.40;;
83747;SDS011;73737;52.364;17.120;2024-03-25T14:22:58;4.30;;;3.00;;
83747;SDS011;73737;52.364;17.120;2024-03-25T14:25:29;4.50;;;3.10;;
83747;SDS011;73737;52.364;17.120;2024-03-25T14:27:57;3.70;;;2.60;;
83747;SDS011;73737;52.364;17.120;2024-03-25T14:30:26;3.50;;;2.80;;
83747;SDS011;73737;52.364;17.120;2024-03-25T14:32:54;3.40;;;2.70;;
83747;SDS011;73737;52.364;17.120;2024-03-25T14:35:23;4.10;;;3.00;;
83747;SDS011;73737;52.364;17.120;2024-03-25T14:37:51;3.80;;;2.90;;
83747;SDS011;73737;52.364;17.120;2024-03-25T14:40:19;3.90;;;3.30;;
83747;SDS011;73737;52.364;17.120;2024-03-25T14:42:48;4.70;;;3.00;;
83747;SDS011;73737;52.364;17.120;2024-03-25T14:45:16;4.20;;;3.10;;
83747;SDS011;73737;52.364;17.120;2024-03-25T14:47:45;4.80;;;3.70;;